createdAt,value
2022-09-26T00:00:42.299Z,12.27
2022-09-26T00:03:10.049Z,15.90
2022-09-26T00:05:37.691Z,10.38
2022-09-26T00:08:05.711Z,12.70
2022-09-26T00:10:33.084Z,12.75
2022-09-26T00:13:00.593Z,13.32
2022-09-26T00:15:27.723Z,10.77
2022-09-26T00:17:54.905Z,18.98
2022-09-26T00:20:21.968Z,15.00
2022-09-26T00:22:49.088Z,13.77
2022-09-26T00:25:16.323Z,12.18
2022-09-26T00:27:43.409Z,12.52
2022-09-26T00:30:11.604Z,12.05
2022-09-26T00:32:38.825Z,12.93
2022-09-26T00:35:09.063Z,15.43
2022-09-26T00:37:36.177Z,20.80
2022-09-26T00:40:03.298Z,13.43
2022-09-26T00:42:32.489Z,14.93
2022-09-26T00:44:59.552Z,11.57
2022-09-26T00:47:45.409Z,11.18
2022-09-26T00:50:35.801Z,11.13
2022-09-26T00:53:18.406Z,15.82
2022-09-26T00:55:48.461Z,11.98
2022-09-26T00:58:19.594Z,11.10
2022-09-26T01:00:47.895Z,11.52
2022-09-26T01:03:16.514Z,12.80
2022-09-26T01:05:43.920Z,15.73
2022-09-26T01:08:11.844Z,13.45
2022-09-26T01:10:39.290Z,18.08
2022-09-26T01:13:08.672Z,10.13
2022-09-26T01:15:36.703Z,9.02
2022-09-26T01:18:04.107Z,11.43
2022-09-26T01:20:40.792Z,11.48
2022-09-26T01:23:07.999Z,9.85
2022-09-26T01:25:37.864Z,9.80
2022-09-26T01:28:09.949Z,13.95
2022-09-26T01:30:53.125Z,9.70
2022-09-26T01:33:27.414Z,9.75
2022-09-26T01:35:57.345Z,9.45
2022-09-26T01:38:30.390Z,13.55
2022-09-26T01:41:16.448Z,9.88
2022-09-26T01:43:50.223Z,9.93
2022-09-26T01:46:32.589Z,11.20
2022-09-26T01:49:09.456Z,11.55
2022-09-26T01:51:39.844Z,10.55
2022-09-26T01:54:12.902Z,8.82
2022-09-26T01:56:40.990Z,9.23
2022-09-26T01:59:10.624Z,8.40
2022-09-26T02:01:45.929Z,9.63
2022-09-26T02:04:15.748Z,10.38
2022-09-26T02:07:06.243Z,11.40
2022-09-26T02:09:33.382Z,11.07
2022-09-26T02:12:04.499Z,12.25
2022-09-26T02:14:34.887Z,13.30
2022-09-26T02:17:12.220Z,10.60
2022-09-26T02:19:44.458Z,13.98
2022-09-26T02:22:11.548Z,9.38
2022-09-26T02:24:38.801Z,11.75
2022-09-26T02:27:06.876Z,11.18
2022-09-26T02:29:34.282Z,11.98
2022-09-26T02:32:24.048Z,13.43
2022-09-26T02:34:51.158Z,16.23
2022-09-26T02:37:20.981Z,10.15
2022-09-26T02:39:49.384Z,12.52
2022-09-26T02:42:17.398Z,14.70
2022-09-26T02:44:49.890Z,14.15
2022-09-26T02:47:28.948Z,73.63
2022-09-26T02:50:17.687Z,60.05
2022-09-26T02:52:56.677Z,14.20
2022-09-26T02:55:39.742Z,33.13
2022-09-26T02:58:10.137Z,23.47
2022-09-26T03:01:00.743Z,16.55
2022-09-26T03:03:48.236Z,11.55
2022-09-26T03:06:19.975Z,10.38
2022-09-26T03:08:48.553Z,12.63
2022-09-26T03:11:19.247Z,12.73
2022-09-26T03:13:46.898Z,9.55
2022-09-26T03:16:17.200Z,8.77
2022-09-26T03:18:53.371Z,12.00
2022-09-26T03:21:20.907Z,8.70
2022-09-26T03:23:48.057Z,9.73
2022-09-26T03:26:18.953Z,13.23
2022-09-26T03:28:46.298Z,7.25
2022-09-26T03:31:13.474Z,7.82
2022-09-26T03:33:42.924Z,9.13
2022-09-26T03:36:09.996Z,7.35
2022-09-26T03:38:39.360Z,7.00
2022-09-26T03:41:09.257Z,6.22
2022-09-26T03:43:43.798Z,6.65
2022-09-26T03:46:12.412Z,10.00
2022-09-26T03:48:40.159Z,7.97
2022-09-26T03:51:09.012Z,7.38
2022-09-26T03:53:37.175Z,5.13
2022-09-26T03:56:10.988Z,5.10
2022-09-26T03:58:40.661Z,9.07
2022-09-26T04:01:27.309Z,16.95
2022-09-26T04:03:54.428Z,11.93
2022-09-26T04:06:21.576Z,9.48
2022-09-26T04:08:51.921Z,10.80
2022-09-26T04:11:22.996Z,7.88
2022-09-26T04:13:53.962Z,7.68
2022-09-26T04:16:23.146Z,7.47
2022-09-26T04:18:51.018Z,8.68
2022-09-26T04:21:18.265Z,13.23
2022-09-26T04:23:45.533Z,9.57
2022-09-26T04:26:17.529Z,11.73
2022-09-26T04:28:49.493Z,11.73
2022-09-26T04:31:24.399Z,19.65
2022-09-26T04:33:58.714Z,13.55
2022-09-26T04:36:25.806Z,15.73
2022-09-26T04:38:56.154Z,14.23
2022-09-26T04:41:23.282Z,12.70
2022-09-26T04:43:50.460Z,8.32
2022-09-26T04:46:22.259Z,7.72
2022-09-26T04:48:51.488Z,9.05
2022-09-26T04:51:19.318Z,13.73
2022-09-26T04:53:46.737Z,11.00
2022-09-26T04:56:14.575Z,17.15
2022-09-26T04:58:42.146Z,13.32
2022-09-26T05:01:10.497Z,16.58
2022-09-26T05:03:38.297Z,16.75
2022-09-26T05:06:07.841Z,16.23
2022-09-26T05:08:36.148Z,16.17
2022-09-26T05:11:03.342Z,14.82
2022-09-26T05:13:31.371Z,12.80
2022-09-26T05:16:03.111Z,11.93
2022-09-26T05:18:30.380Z,14.95
2022-09-26T05:20:58.012Z,13.30
2022-09-26T05:23:45.625Z,16.58
2022-09-26T05:26:48.122Z,14.77
2022-09-26T05:29:16.193Z,15.80
2022-09-26T05:31:44.932Z,12.60
2022-09-26T05:34:18.390Z,17.67
2022-09-26T05:36:46.547Z,15.32
2022-09-26T05:39:32.096Z,14.75
2022-09-26T05:41:59.987Z,12.65
2022-09-26T05:44:28.307Z,14.85
2022-09-26T05:46:56.872Z,16.70
2022-09-26T05:49:25.575Z,11.82
2022-09-26T05:51:53.908Z,12.48
2022-09-26T05:54:21.165Z,10.38
2022-09-26T05:56:48.373Z,14.20
2022-09-26T05:59:15.667Z,16.02
2022-09-26T06:01:43.313Z,10.90
2022-09-26T06:04:10.745Z,15.10
2022-09-26T06:06:37.932Z,11.73
2022-09-26T06:09:07.301Z,11.73
2022-09-26T06:11:34.538Z,12.65
2022-09-26T06:14:01.843Z,14.95
2022-09-26T06:16:29.408Z,13.75
2022-09-26T06:18:56.885Z,19.88
2022-09-26T06:21:24.064Z,14.02
2022-09-26T06:23:51.376Z,17.23
2022-09-26T06:26:23.612Z,9.95
2022-09-26T06:29:02.392Z,11.35
2022-09-26T06:31:31.679Z,16.00
2022-09-26T06:33:59.006Z,19.27
2022-09-26T06:36:31.555Z,17.73
2022-09-26T06:38:58.645Z,20.50
2022-09-26T06:41:26.559Z,16.20
2022-09-26T06:43:55.867Z,12.70
2022-09-26T06:46:25.194Z,53.60
2022-09-26T06:48:52.334Z,37.15
2022-09-26T06:51:20.112Z,54.30
2022-09-26T06:53:47.487Z,14.68
2022-09-26T06:56:14.824Z,12.63
2022-09-26T06:58:42.033Z,8.98
2022-09-26T07:01:09.540Z,12.63
2022-09-26T07:03:39.435Z,10.30
2022-09-26T07:06:09.126Z,12.13
2022-09-26T07:09:00.827Z,7.60
2022-09-26T07:14:17.279Z,10.85
2022-09-26T07:16:45.354Z,8.60
2022-09-26T07:19:13.114Z,2.35
2022-09-26T07:21:40.369Z,5.30
2022-09-26T07:24:08.670Z,3.42
2022-09-26T07:26:38.188Z,4.25
2022-09-26T07:29:05.279Z,8.23
2022-09-26T07:31:32.557Z,3.22
2022-09-26T07:33:59.737Z,2.75
2022-09-26T07:36:26.806Z,8.32
2022-09-26T07:38:54.005Z,7.88
2022-09-26T07:41:21.157Z,10.43
2022-09-26T07:46:54.039Z,5.53
2022-09-26T07:49:42.522Z,3.10
2022-09-26T07:52:20.648Z,5.97
2022-09-26T07:54:47.777Z,12.88
2022-09-26T07:57:15.637Z,6.00
2022-09-26T07:59:42.742Z,1.45
2022-09-26T08:02:23.207Z,3.25
2022-09-26T08:04:50.466Z,2.92
2022-09-26T08:07:18.072Z,1.23
2022-09-26T08:09:45.327Z,3.17
2022-09-26T08:12:14.460Z,3.47
2022-09-26T08:14:43.924Z,2.55
2022-09-26T08:17:14.610Z,3.92
2022-09-26T08:19:41.947Z,1.90
2022-09-26T08:22:14.738Z,1.27
2022-09-26T08:24:43.707Z,3.50
2022-09-26T08:27:13.667Z,6.55
2022-09-26T08:29:47.738Z,3.08
2022-09-26T08:32:14.875Z,2.08
2022-09-26T08:34:42.019Z,4.82
2022-09-26T08:37:09.235Z,2.25
2022-09-26T08:39:36.634Z,2.75
2022-09-26T08:42:17.634Z,1.80
2022-09-26T08:44:45.653Z,4.07
2022-09-26T08:47:35.384Z,4.97
2022-09-26T08:50:33.415Z,5.55
2022-09-26T08:53:03.044Z,3.50
2022-09-26T08:55:53.768Z,5.60
2022-09-26T08:58:28.889Z,3.10
2022-09-26T09:00:58.432Z,3.70
2022-09-26T09:03:28.670Z,3.45
2022-09-26T09:06:09.409Z,3.00
2022-09-26T09:08:48.597Z,4.57
2022-09-26T09:11:21.174Z,4.97
2022-09-26T09:13:48.425Z,2.95
2022-09-26T09:16:15.667Z,3.00
2022-09-26T09:18:54.967Z,5.82
2022-09-26T09:21:28.384Z,3.55
2022-09-26T09:23:55.607Z,1.95
2022-09-26T09:29:30.735Z,11.63
2022-09-26T09:32:03.475Z,2.88
2022-09-26T09:34:39.886Z,4.77
2022-09-26T09:37:11.412Z,3.30
2022-09-26T09:39:44.596Z,3.58
2022-09-26T09:42:23.153Z,7.78
2022-09-26T09:45:02.348Z,3.38
2022-09-26T09:47:29.896Z,2.92
2022-09-26T09:49:59.740Z,7.70
2022-09-26T09:52:48.454Z,2.40
2022-09-26T09:55:34.457Z,4.47
2022-09-26T09:58:07.408Z,3.75
2022-09-26T10:00:38.177Z,6.40
2022-09-26T10:03:26.645Z,5.65
2022-09-26T10:05:57.344Z,4.32
2022-09-26T10:08:32.086Z,2.60
2022-09-26T10:10:59.316Z,2.13
2022-09-26T10:13:32.669Z,2.13
2022-09-26T10:16:01.984Z,5.90
2022-09-26T10:18:29.176Z,2.35
2022-09-26T10:21:19.643Z,3.70
2022-09-26T10:23:55.591Z,4.55
2022-09-26T10:26:30.497Z,5.22
2022-09-26T10:29:01.251Z,5.55
2022-09-26T10:31:29.937Z,1.70
2022-09-26T10:34:00.190Z,3.63
2022-09-26T10:36:32.151Z,2.60
2022-09-26T10:39:38.026Z,9.32
2022-09-26T10:42:06.630Z,9.05
2022-09-26T10:44:37.153Z,7.57
2022-09-26T10:47:08.712Z,3.53
2022-09-26T10:49:51.356Z,7.22
2022-09-26T10:52:27.723Z,5.25
2022-09-26T10:54:59.912Z,3.53
2022-09-26T10:57:30.751Z,3.55
2022-09-26T11:00:01.453Z,2.67
2022-09-26T11:02:29.026Z,3.78
2022-09-26T11:05:17.835Z,3.13
2022-09-26T11:07:47.261Z,3.97
2022-09-26T11:10:15.956Z,3.78
2022-09-26T11:12:56.360Z,2.58
2022-09-26T11:15:23.982Z,10.63
2022-09-26T11:17:52.229Z,3.40
2022-09-26T11:20:38.086Z,1.13
2022-09-26T11:23:27.636Z,2.83
2022-09-26T11:26:07.011Z,2.45
2022-09-26T11:28:36.513Z,6.43
2022-09-26T11:31:06.373Z,3.58
2022-09-26T11:33:34.382Z,6.95
2022-09-26T11:36:10.927Z,3.90
2022-09-26T11:38:47.904Z,2.08
2022-09-26T11:41:16.101Z,18.27
2022-09-26T11:44:02.273Z,6.93
2022-09-26T11:46:29.779Z,5.13
2022-09-26T11:49:03.112Z,2.90
2022-09-26T11:51:40.247Z,2.30
2022-09-26T11:54:26.660Z,9.82
2022-09-26T11:57:09.364Z,2.50
2022-09-26T11:59:52.821Z,4.22
2022-09-26T12:02:23.631Z,11.52
2022-09-26T12:04:54.128Z,2.90
2022-09-26T12:07:34.333Z,2.25
2022-09-26T12:10:04.436Z,2.63
2022-09-26T12:12:42.465Z,3.47
2022-09-26T12:15:23.806Z,7.22
2022-09-26T12:18:13.197Z,6.13
2022-09-26T12:20:40.295Z,1.88
2022-09-26T12:23:23.850Z,2.40
2022-09-26T12:25:57.187Z,2.33
2022-09-26T12:28:25.512Z,3.65
2022-09-26T12:31:01.789Z,4.53
2022-09-26T12:33:34.715Z,4.30
2022-09-26T12:36:21.638Z,5.13
2022-09-26T12:38:51.972Z,2.60
2022-09-26T12:41:50.667Z,3.77
2022-09-26T12:44:40.890Z,7.68
2022-09-26T12:47:18.996Z,5.55
2022-09-26T12:50:05.020Z,4.25
2022-09-26T12:52:35.198Z,13.18
2022-09-26T12:55:24.960Z,1.58
2022-09-26T12:58:10.948Z,5.90
2022-09-26T13:00:45.194Z,3.72
2022-09-26T13:03:32.796Z,35.85
2022-09-26T13:06:09.089Z,5.88
2022-09-26T13:08:45.151Z,1.85
2022-09-26T13:11:18.605Z,3.65
2022-09-26T13:14:08.989Z,5.43
2022-09-26T13:17:10.213Z,1.75
2022-09-26T13:19:44.624Z,16.85
2022-09-26T13:22:27.703Z,1.92
2022-09-26T13:25:03.096Z,3.60
2022-09-26T13:27:36.221Z,2.58
2022-09-26T13:30:05.758Z,14.52
2022-09-26T13:32:40.485Z,14.10
2022-09-26T13:35:17.449Z,11.60
2022-09-26T13:38:08.252Z,32.83
2022-09-26T13:40:50.523Z,15.77
2022-09-26T13:43:24.148Z,8.32
2022-09-26T13:46:21.147Z,7.85
2022-09-26T13:49:08.627Z,3.03
2022-09-26T13:51:40.433Z,2.45
2022-09-26T13:54:27.340Z,1.15
2022-09-26T13:56:56.060Z,1.58
2022-09-26T13:59:34.388Z,1.42
2022-09-26T14:02:28.272Z,1.75
2022-09-26T14:05:14.427Z,1.95
2022-09-26T14:08:00.239Z,1.30
2022-09-26T14:10:40.129Z,1.77
2022-09-26T14:13:13.318Z,1.20
2022-09-26T14:15:45.597Z,3.35
2022-09-26T14:18:36.448Z,3.20
2022-09-26T14:21:12.977Z,2.88
2022-09-26T14:24:05.837Z,2.92
2022-09-26T14:26:42.714Z,2.72
2022-09-26T14:29:27.895Z,2.65
2022-09-26T14:32:20.783Z,0.45
2022-09-26T14:34:59.433Z,5.80
2022-09-26T14:37:40.784Z,1.75
2022-09-26T14:40:08.174Z,0.70
2022-09-26T14:42:38.358Z,3.38
2022-09-26T14:45:06.541Z,3.83
2022-09-26T14:47:43.599Z,1.05
2022-09-26T14:50:18.210Z,0.50
2022-09-26T14:53:03.535Z,3.58
2022-09-26T14:55:33.560Z,0.70
2022-09-26T14:58:18.495Z,3.30
2022-09-26T15:00:51.261Z,0.50
2022-09-26T15:03:18.907Z,3.10
2022-09-26T15:05:46.871Z,0.75
2022-09-26T15:08:33.530Z,1.27
2022-09-26T15:11:03.405Z,1.23
2022-09-26T15:13:33.773Z,2.05
2022-09-26T15:16:08.234Z,1.27
2022-09-26T15:18:40.417Z,0.68
2022-09-26T15:21:27.528Z,3.15
2022-09-26T15:23:57.914Z,2.83
2022-09-26T15:26:36.383Z,0.60
2022-09-26T15:29:06.258Z,1.00
2022-09-26T15:31:41.704Z,0.35
2022-09-26T15:34:33.278Z,1.27
2022-09-26T15:37:00.673Z,0.80
2022-09-26T15:39:30.962Z,1.33
2022-09-26T15:42:24.496Z,1.15
2022-09-26T15:44:58.886Z,1.23
2022-09-26T15:47:32.190Z,3.88
2022-09-26T15:50:20.908Z,2.55
2022-09-26T15:52:57.355Z,2.35
2022-09-26T15:55:29.781Z,1.85
2022-09-26T15:57:59.579Z,1.58
2022-09-26T16:00:26.753Z,2.72
2022-09-26T16:02:54.421Z,1.80
2022-09-26T16:05:22.580Z,1.00
2022-09-26T16:07:55.157Z,1.17
2022-09-26T16:10:28.376Z,12.32
2022-09-26T16:12:57.089Z,16.38
2022-09-26T16:15:35.365Z,12.32
2022-09-26T16:18:02.663Z,9.43
2022-09-26T16:20:30.821Z,16.23
2022-09-26T16:23:05.682Z,5.25
2022-09-26T16:25:52.999Z,23.02
2022-09-26T16:28:22.091Z,11.48
2022-09-26T16:30:52.545Z,5.43
2022-09-26T16:33:32.628Z,5.15
2022-09-26T16:36:04.726Z,10.13
2022-09-26T16:38:38.332Z,5.35
2022-09-26T16:43:36.217Z,3.85
2022-09-26T16:46:09.313Z,14.13
2022-09-26T16:48:40.121Z,12.93
2022-09-26T16:51:13.660Z,11.50
2022-09-26T16:56:19.176Z,5.55
2022-09-26T16:58:54.164Z,11.07
2022-09-26T17:01:45.104Z,9.23
2022-09-26T17:04:14.885Z,9.15
2022-09-26T17:06:54.307Z,5.90
2022-09-26T17:09:29.639Z,7.82
2022-09-26T17:11:58.592Z,5.25
2022-09-26T17:14:28.134Z,6.85
2022-09-26T17:16:56.579Z,8.55
2022-09-26T17:19:24.709Z,6.25
2022-09-26T17:21:56.324Z,7.13
2022-09-26T17:24:24.609Z,9.25
2022-09-26T17:26:57.210Z,7.25
2022-09-26T17:29:30.014Z,8.75
2022-09-26T17:32:07.501Z,8.60
2022-09-26T17:34:38.922Z,7.28
2022-09-26T17:37:06.116Z,9.10
2022-09-26T17:39:33.276Z,5.72
2022-09-26T17:42:01.653Z,9.38
2022-09-26T17:44:28.777Z,4.80
2022-09-26T17:46:57.287Z,9.25
2022-09-26T17:49:29.284Z,6.43
2022-09-26T17:51:58.388Z,8.82
2022-09-26T17:54:29.627Z,6.55
2022-09-26T17:56:57.031Z,5.80
2022-09-26T17:59:25.729Z,8.02
2022-09-26T18:01:54.321Z,7.38
2022-09-26T18:04:21.811Z,8.65
2022-09-26T18:06:48.967Z,7.25
2022-09-26T18:09:16.888Z,9.05
2022-09-26T18:11:52.368Z,9.30
2022-09-26T18:14:20.125Z,10.05
2022-09-26T18:16:49.461Z,10.07
2022-09-26T18:19:17.325Z,11.35
2022-09-26T18:21:44.736Z,7.32
2022-09-26T18:24:19.353Z,5.93
2022-09-26T18:26:48.152Z,3.30
2022-09-26T18:29:38.678Z,3.28
2022-09-26T18:32:06.861Z,1.90
2022-09-26T18:34:33.991Z,2.70
2022-09-26T18:37:03.478Z,1.45
2022-09-26T18:39:33.348Z,3.90
2022-09-26T18:42:02.709Z,1.77
2022-09-26T18:44:30.576Z,1.00
2022-09-26T18:47:05.907Z,2.45
2022-09-26T18:49:34.401Z,1.25
2022-09-26T18:52:01.770Z,2.25
2022-09-26T18:54:32.162Z,2.08
2022-09-26T18:57:20.236Z,2.08
2022-09-26T18:59:49.815Z,3.60
2022-09-26T19:02:20.414Z,1.98
2022-09-26T19:04:47.831Z,2.65
2022-09-26T19:07:21.005Z,3.40
2022-09-26T19:09:51.079Z,4.75
2022-09-26T19:12:18.417Z,4.50
2022-09-26T19:14:45.658Z,1.00
2022-09-26T19:17:13.022Z,2.60
2022-09-26T19:19:40.138Z,1.77
2022-09-26T19:22:10.358Z,1.83
2022-09-26T19:24:40.337Z,1.80
2022-09-26T19:27:22.569Z,2.70
2022-09-26T19:30:01.234Z,2.17
2022-09-26T19:32:44.457Z,1.45
2022-09-26T19:35:21.091Z,1.17
2022-09-26T19:37:48.225Z,4.40
2022-09-26T19:40:19.787Z,1.30
2022-09-26T19:42:46.930Z,4.03
2022-09-26T19:45:14.990Z,2.22
2022-09-26T19:47:43.696Z,4.07
2022-09-26T19:50:16.107Z,7.28
2022-09-26T19:52:43.262Z,1.42
2022-09-26T19:55:26.792Z,2.25
2022-09-26T19:57:56.974Z,3.90
2022-09-26T20:00:26.411Z,1.70
2022-09-26T20:02:58.964Z,1.35
2022-09-26T20:05:29.044Z,3.05
2022-09-26T20:07:58.544Z,4.75
2022-09-26T20:10:25.716Z,6.93
2022-09-26T20:12:55.274Z,5.00
2022-09-26T20:15:25.006Z,4.20
2022-09-26T20:17:57.550Z,5.72
2022-09-26T20:20:25.541Z,2.75
2022-09-26T20:22:58.471Z,3.47
2022-09-26T20:25:27.515Z,5.57
2022-09-26T20:27:55.481Z,2.60
2022-09-26T20:30:41.751Z,3.50
2022-09-26T20:33:13.441Z,6.47
2022-09-26T20:35:45.381Z,3.42
2022-09-26T20:38:26.730Z,4.90
2022-09-26T20:41:00.481Z,6.70
2022-09-26T20:43:31.325Z,2.97
2022-09-26T20:46:00.904Z,5.07
2022-09-26T20:48:30.978Z,5.15
2022-09-26T20:50:58.099Z,14.43
2022-09-26T20:53:25.572Z,12.15
2022-09-26T20:55:55.320Z,5.88
2022-09-26T20:58:22.523Z,3.75
2022-09-26T21:00:50.185Z,3.40
2022-09-26T21:03:19.616Z,3.22
2022-09-26T21:05:47.122Z,5.25
2022-09-26T21:08:27.852Z,3.22
2022-09-26T21:10:57.934Z,3.65
2022-09-26T21:13:24.994Z,4.10
2022-09-26T21:15:52.857Z,8.02
2022-09-26T21:18:25.612Z,9.77
2022-09-26T21:20:53.307Z,4.70
2022-09-26T21:23:21.180Z,4.47
2022-09-26T21:25:50.720Z,4.85
2022-09-26T21:28:28.945Z,6.45
2022-09-26T21:31:00.903Z,2.25
2022-09-26T21:33:34.954Z,5.65
2022-09-26T21:36:07.015Z,3.42
2022-09-26T21:38:36.414Z,2.33
2022-09-26T21:41:09.941Z,2.70
2022-09-26T21:46:06.845Z,3.28
2022-09-26T21:48:39.095Z,5.38
2022-09-26T21:51:07.733Z,3.47
2022-09-26T21:53:42.861Z,3.15
2022-09-26T21:56:16.339Z,7.00
2022-09-26T21:58:46.479Z,1.92
2022-09-26T22:01:14.723Z,9.30
2022-09-26T22:03:42.068Z,7.25
2022-09-26T22:06:10.013Z,4.47
2022-09-26T22:08:37.594Z,7.63
2022-09-26T22:11:05.149Z,4.25
2022-09-26T22:13:34.713Z,6.68
2022-09-26T22:16:06.033Z,3.35
2022-09-26T22:18:34.042Z,3.47
2022-09-26T22:21:04.688Z,3.25
2022-09-26T22:23:32.556Z,2.50
2022-09-26T22:25:59.987Z,4.07
2022-09-26T22:28:27.536Z,3.50
2022-09-26T22:30:57.457Z,3.28
2022-09-26T22:33:26.861Z,2.42
2022-09-26T22:35:53.915Z,2.78
2022-09-26T22:38:21.101Z,4.60
2022-09-26T22:41:10.881Z,3.63
2022-09-26T22:43:37.990Z,6.18
2022-09-26T22:46:09.289Z,7.90
2022-09-26T22:48:41.219Z,3.70
2022-09-26T22:51:09.040Z,4.55
2022-09-26T22:53:37.107Z,4.35
2022-09-26T22:56:08.148Z,4.72
2022-09-26T22:58:40.010Z,5.22
2022-09-26T23:01:08.682Z,3.67
2022-09-26T23:03:35.927Z,7.63
2022-09-26T23:06:03.079Z,2.67
2022-09-26T23:08:30.275Z,6.15
2022-09-26T23:10:57.973Z,2.83
2022-09-26T23:13:31.525Z,2.50
2022-09-26T23:18:25.619Z,1.20
2022-09-26T23:20:54.951Z,1.40
2022-09-26T23:23:24.244Z,3.85
2022-09-26T23:25:51.293Z,0.90
2022-09-26T23:28:20.824Z,0.85
2022-09-26T23:30:51.291Z,0.75
2022-09-26T23:33:18.452Z,3.38
2022-09-26T23:35:45.577Z,0.88
2022-09-26T23:38:12.683Z,0.75
2022-09-26T23:40:39.862Z,2.85
2022-09-26T23:43:07.055Z,1.02
2022-09-26T23:45:34.160Z,0.88
2022-09-26T23:48:01.351Z,2.88
2022-09-26T23:50:30.563Z,2.50
2022-09-26T23:53:06.501Z,0.77
2022-09-26T23:55:36.142Z,1.38
2022-09-26T23:58:03.234Z,1.20
